Time;durP1;ratioP1;P1;durP2;ratioP2;P2;SDS_P1;SDS_P2;PMS_P1;PMS_P2;Temp;Humidity;BMP_temperature;BMP_pressure;BME280_temperature;BME280_humidity;BME280_pressure;Samples;Min_cycle;Max_cycle;Signal;HPM_P1;HPM_P2
2024/01/21 00:01:23;;;;;;;;;;;;;;;18.24;21.64;99431.22;5103095;28;19916;-87
2024/01/21 00:03:49;;;;;;;;;;;;;;;17.22;22.48;99432.22;5097880;28;19920;-87
2024/01/21 00:06:15;;;;;;;;;;;;;;;16.95;23.67;99436.63;5113250;28;20391;-87
2024/01/21 00:08:41;;;;;;;;;;;;;;;16.52;23.77;99442.09;5108719;28;19945;-86
2024/01/21 00:11:07;;;;;;;;;;;;;;;16.77;23.96;99438.09;5112355;28;19950;-86
2024/01/21 00:13:34;;;;;;;;;;;;;;;17.77;22.72;99446.00;5111611;28;20400;-86
2024/01/21 00:16:00;;;;;;;;;;;;;;;17.89;22.91;99448.69;5104541;28;19964;-86
2024/01/21 00:18:26;;;;;;;;;;;;;;;17.03;24.06;99446.75;5108895;28;19920;-87
2024/01/21 00:20:52;;;;;;;;;;;;;;;17.08;24.08;99451.25;5110625;28;20394;-87
2024/01/21 00:23:18;;;;;;;;;;;;;;;17.81;22.97;99451.63;5110851;28;19923;-87
2024/01/21 00:25:44;;;;;;;;;;;;;;;16.61;26.11;99470.47;5112561;28;20383;-86
2024/01/21 00:28:10;;;;;;;;;;;;;;;17.70;23.58;99459.69;5109442;28;20398;-87
2024/01/21 00:30:36;;;;;;;;;;;;;;;18.49;22.44;99454.88;5112972;28;19930;-87
2024/01/21 00:33:02;;;;;;;;;;;;;;;17.72;23.40;99462.91;5109901;28;19927;-87
2024/01/21 00:35:28;;;;;;;;;;;;;;;16.93;24.72;99457.53;5104138;28;19934;-87
2024/01/21 00:37:54;;;;;;;;;;;;;;;17.80;24.33;99470.28;5109479;28;20367;-87
2024/01/21 00:40:20;;;;;;;;;;;;;;;18.26;23.93;99476.16;5111094;28;20401;-87
2024/01/21 00:42:46;;;;;;;;;;;;;;;17.32;25.99;99486.41;5112078;28;20399;-86
2024/01/21 00:45:12;;;;;;;;;;;;;;;16.35;26.46;99497.75;5111470;28;19923;-87
2024/01/21 00:47:39;;;;;;;;;;;;;;;17.60;24.51;99482.44;5112416;28;20481;-87
2024/01/21 00:50:05;;;;;;;;;;;;;;;18.11;24.03;99477.78;5112954;28;19924;-87
2024/01/21 00:52:31;;;;;;;;;;;;;;;18.25;23.78;99478.13;5092393;28;20344;-86
2024/01/21 00:54:57;;;;;;;;;;;;;;;18.48;23.53;99493.00;5113239;28;19920;-86
2024/01/21 00:57:23;;;;;;;;;;;;;;;19.60;22.25;99501.34;5118492;27;20010;-86
2024/01/21 00:59:49;;;;;;;;;;;;;;;19.14;22.79;99495.63;5109049;28;19931;-86
2024/01/21 01:02:15;;;;;;;;;;;;;;;20.00;21.58;99490.50;5115247;28;19920;-86
2024/01/21 01:04:41;;;;;;;;;;;;;;;20.33;21.41;99496.28;5117140;28;19925;-86
2024/01/21 01:07:07;;;;;;;;;;;;;;;20.13;21.56;99491.13;5116674;28;19963;-86
2024/01/21 01:09:33;;;;;;;;;;;;;;;19.67;22.06;99502.28;5112993;28;19959;-86
2024/01/21 01:11:59;;;;;;;;;;;;;;;19.70;21.91;99509.09;5111036;27;20458;-86
2024/01/21 01:14:25;;;;;;;;;;;;;;;20.19;21.74;99511.94;5107067;28;19966;-86
2024/01/21 01:16:51;;;;;;;;;;;;;;;20.95;21.03;99517.13;5116187;28;19923;-86
2024/01/21 01:19:17;;;;;;;;;;;;;;;20.73;20.84;99512.41;5112133;28;19920;-87
2024/01/21 01:21:43;;;;;;;;;;;;;;;20.24;21.58;99520.03;5114797;28;19938;-86
2024/01/21 01:24:10;;;;;;;;;;;;;;;21.15;20.64;99518.59;5115377;28;19945;-87
2024/01/21 01:26:36;;;;;;;;;;;;;;;21.14;20.55;99517.00;5115829;28;20016;-86
2024/01/21 01:29:02;;;;;;;;;;;;;;;20.61;20.99;99513.44;5108510;28;19981;-87
2024/01/21 01:31:28;;;;;;;;;;;;;;;21.87;19.89;99509.84;5112812;28;20406;-86
2024/01/21 01:33:54;;;;;;;;;;;;;;;21.60;20.12;99505.56;5106158;28;19920;-86
2024/01/21 01:36:20;;;;;;;;;;;;;;;21.67;19.97;99508.44;5116181;28;19954;-86
2024/01/21 01:38:46;;;;;;;;;;;;;;;21.99;19.40;99513.19;5092959;28;19920;-87
2024/01/21 01:41:12;;;;;;;;;;;;;;;21.74;19.67;99502.91;5108618;28;19927;-86
2024/01/21 01:43:38;;;;;;;;;;;;;;;21.12;20.21;99513.78;5115323;28;20264;-86
2024/01/21 01:46:05;;;;;;;;;;;;;;;21.11;20.13;99514.16;5115466;28;19976;-86
2024/01/21 01:48:32;;;;;;;;;;;;;;;21.49;19.90;99518.63;5097642;28;19934;-86
2024/01/21 01:50:59;;;;;;;;;;;;;;;21.34;19.88;99524.03;5109487;28;19926;-87
2024/01/21 01:53:26;;;;;;;;;;;;;;;21.64;19.61;99523.16;5105750;28;19974;-86
2024/01/21 01:55:52;;;;;;;;;;;;;;;22.33;19.10;99515.88;5095749;28;20316;-86
2024/01/21 01:58:18;;;;;;;;;;;;;;;22.69;18.43;99510.16;5110859;28;19946;-87
2024/01/21 02:00:47;;;;;;;;;;;;;;;22.26;19.03;99510.22;5115702;28;19924;-87
2024/01/21 02:03:14;;;;;;;;;;;;;;;21.69;19.49;99514.44;5114831;28;19916;-87
2024/01/21 02:05:40;;;;;;;;;;;;;;;22.37;18.90;99509.13;5099904;28;19920;-87
2024/01/21 02:08:06;;;;;;;;;;;;;;;22.84;18.46;99513.06;5114551;28;20006;-87
2024/01/21 02:10:32;;;;;;;;;;;;;;;23.25;18.14;99515.25;5113243;28;19920;-87
2024/01/21 02:12:58;;;;;;;;;;;;;;;23.20;18.04;99518.44;5094762;28;19989;-87
2024/01/21 02:15:25;;;;;;;;;;;;;;;22.60;18.60;99526.50;5113659;28;19935;-88
2024/01/21 02:17:51;;;;;;;;;;;;;;;22.34;18.73;99526.69;5094304;28;20388;-88
2024/01/21 02:20:17;;;;;;;;;;;;;;;22.94;18.42;99523.53;5103825;28;19927;-87
2024/01/21 02:22:43;;;;;;;;;;;;;;;23.60;17.81;99527.81;5093557;28;19920;-87
2024/01/21 02:25:09;;;;;;;;;;;;;;;24.16;17.18;99530.78;5092818;28;19928;-86
2024/01/21 02:27:37;;;;;;;;;;;;;;;23.76;17.43;99531.88;5097211;28;20403;-87
2024/01/21 02:30:04;;;;;;;;;;;;;;;23.64;17.69;99543.47;5098303;28;19930;-87
2024/01/21 02:32:30;;;;;;;;;;;;;;;23.93;17.60;99538.72;5089501;28;20066;-87
2024/01/21 02:34:56;;;;;;;;;;;;;;;24.34;17.12;99539.22;5094088;28;19986;-87
2024/01/21 02:37:22;;;;;;;;;;;;;;;23.74;17.52;99539.09;5094053;28;19964;-87
2024/01/21 02:39:48;;;;;;;;;;;;;;;23.48;17.44;99533.81;5088706;28;20410;-87
2024/01/21 02:42:14;;;;;;;;;;;;;;;23.47;17.67;99535.81;5094493;28;20015;-87
2024/01/21 02:44:40;;;;;;;;;;;;;;;22.61;18.32;99535.72;5076456;28;19922;-88
2024/01/21 02:47:06;;;;;;;;;;;;;;;21.94;18.88;99535.91;5092489;28;19916;-88
2024/01/21 02:49:32;;;;;;;;;;;;;;;21.28;19.45;99550.69;5094315;28;19959;-88
2024/01/21 02:51:58;;;;;;;;;;;;;;;22.03;18.92;99546.78;5073983;28;19960;-89
2024/01/21 02:54:25;;;;;;;;;;;;;;;22.75;18.21;99549.00;5093164;28;19920;-88
2024/01/21 02:56:51;;;;;;;;;;;;;;;22.37;18.33;99553.88;5093528;28;19920;-88
2024/01/21 02:59:17;;;;;;;;;;;;;;;22.29;18.64;99560.59;5093211;28;20384;-88
2024/01/21 03:01:43;;;;;;;;;;;;;;;22.61;18.35;99550.50;5093780;28;19916;-88
2024/01/21 03:04:11;;;;;;;;;;;;;;;23.01;17.66;99555.16;5094323;28;19923;-86
2024/01/21 03:06:37;;;;;;;;;;;;;;;22.16;18.65;99547.28;5075945;28;19920;-87
2024/01/21 03:09:03;;;;;;;;;;;;;;;21.26;19.62;99560.66;5084438;28;20368;-87
2024/01/21 03:11:29;;;;;;;;;;;;;;;21.34;19.77;99556.75;5093738;28;19943;-87
2024/01/21 03:13:55;;;;;;;;;;;;;;;21.49;19.10;99555.75;5090724;28;19931;-88
2024/01/21 03:16:21;;;;;;;;;;;;;;;21.44;19.38;99558.06;5100457;28;19924;-87
2024/01/21 03:18:47;;;;;;;;;;;;;;;21.71;19.01;99554.81;5113740;27;19920;-87
2024/01/21 03:21:14;;;;;;;;;;;;;;;22.24;18.34;99551.78;5117258;27;19926;-87
2024/01/21 03:23:40;;;;;;;;;;;;;;;22.01;18.52;99552.75;5113068;27;19919;-88
2024/01/21 03:26:06;;;;;;;;;;;;;;;21.99;18.41;99559.91;5132138;27;19924;-88
2024/01/21 03:28:32;;;;;;;;;;;;;;;22.16;18.25;99555.69;5117352;27;19928;-88
2024/01/21 03:30:58;;;;;;;;;;;;;;;22.08;18.55;99566.00;5127732;27;19931;-88
2024/01/21 03:33:25;;;;;;;;;;;;;;;21.44;18.94;99569.25;5118080;27;20383;-87
2024/01/21 03:35:51;;;;;;;;;;;;;;;21.54;19.02;99576.97;5107242;27;19920;-86
2024/01/21 03:38:17;;;;;;;;;;;;;;;21.27;19.06;99565.84;5120161;27;19919;-86
2024/01/21 03:40:43;;;;;;;;;;;;;;;21.29;19.02;99569.06;5114337;27;20414;-86
2024/01/21 03:43:09;;;;;;;;;;;;;;;21.82;18.77;99558.50;5118903;27;19964;-86
2024/01/21 03:45:35;;;;;;;;;;;;;;;22.47;18.14;99557.97;5116505;27;20008;-86
2024/01/21 03:48:02;;;;;;;;;;;;;;;22.06;18.29;99562.78;5122894;27;19994;-86
2024/01/21 03:50:28;;;;;;;;;;;;;;;21.63;18.87;99571.88;5127615;27;19927;-86
2024/01/21 03:52:54;;;;;;;;;;;;;;;20.41;20.15;99569.72;5118443;27;19919;-86
2024/01/21 03:55:20;;;;;;;;;;;;;;;20.94;19.59;99568.56;5124176;27;20306;-86
2024/01/21 03:57:47;;;;;;;;;;;;;;;21.19;19.27;99566.94;5117290;27;20286;-86
2024/01/21 04:00:13;;;;;;;;;;;;;;;21.14;19.36;99566.47;5098303;28;19923;-87
2024/01/21 04:02:39;;;;;;;;;;;;;;;21.10;19.47;99568.41;5113685;27;19919;-87
2024/01/21 04:05:06;;;;;;;;;;;;;;;22.20;18.30;99564.91;5130625;27;19917;-88
2024/01/21 04:07:32;;;;;;;;;;;;;;;21.95;18.46;99573.06;5119724;27;19930;-88
2024/01/21 04:09:59;;;;;;;;;;;;;;;21.10;19.18;99580.38;5122477;27;19922;-88
2024/01/21 04:12:25;;;;;;;;;;;;;;;21.18;19.29;99573.72;5115548;27;19932;-88
2024/01/21 04:14:51;;;;;;;;;;;;;;;21.84;18.86;99570.16;5124305;27;20046;-87
2024/01/21 04:17:19;;;;;;;;;;;;;;;22.58;18.28;99564.44;5112106;28;19927;-87
2024/01/21 04:19:46;;;;;;;;;;;;;;;23.08;17.59;99560.81;5118762;27;19919;-87
2024/01/21 04:22:12;;;;;;;;;;;;;;;23.38;17.37;99560.59;5111852;27;19970;-88
2024/01/21 04:24:38;;;;;;;;;;;;;;;23.91;16.88;99564.38;5111400;28;19920;-88
2024/01/21 04:27:04;;;;;;;;;;;;;;;24.32;16.43;99566.88;5112928;28;19919;-88
2024/01/21 04:29:30;;;;;;;;;;;;;;;23.85;16.78;99570.78;5112551;28;19943;-88
2024/01/21 04:31:56;;;;;;;;;;;;;;;23.79;16.81;99567.56;5107234;28;20607;-89
2024/01/21 04:34:22;;;;;;;;;;;;;;;23.64;17.10;99577.09;5111738;28;19927;-88
2024/01/21 04:36:48;;;;;;;;;;;;;;;23.74;16.91;99587.56;5114214;28;19972;-89
2024/01/21 04:39:18;;;;;;;;;;;;;;;23.98;16.88;99581.25;5112324;28;19920;-88
2024/01/21 04:41:45;;;;;;;;;;;;;;;24.11;16.62;99581.66;5112168;28;19923;-88
2024/01/21 04:44:11;;;;;;;;;;;;;;;23.72;16.84;99581.56;5113079;28;19920;-88
2024/01/21 04:46:37;;;;;;;;;;;;;;;24.01;16.69;99586.03;5109813;28;19996;-88
2024/01/21 04:49:03;;;;;;;;;;;;;;;24.21;16.52;99583.69;5111722;28;19927;-88
2024/01/21 04:51:29;;;;;;;;;;;;;;;24.48;16.07;99586.94;5094191;28;19920;-88
2024/01/21 04:53:55;;;;;;;;;;;;;;;24.27;16.53;99589.75;5107948;28;20005;-87
2024/01/21 04:56:21;;;;;;;;;;;;;;;24.29;16.51;99585.34;5110506;28;20295;-87
2024/01/21 04:58:47;;;;;;;;;;;;;;;24.49;16.38;99586.53;5112125;28;19923;-87
2024/01/21 05:01:15;;;;;;;;;;;;;;;24.24;16.54;99591.34;5112186;28;20337;-87
2024/01/21 05:03:41;;;;;;;;;;;;;;;24.23;16.30;99594.53;5108456;28;19927;-87
2024/01/21 05:06:07;;;;;;;;;;;;;;;24.54;16.62;99590.94;5093646;28;19919;-88
2024/01/21 05:08:34;;;;;;;;;;;;;;;24.86;16.15;99596.56;5108704;28;19966;-88
2024/01/21 05:11:00;;;;;;;;;;;;;;;25.07;16.01;99608.59;5110527;28;19973;-87
2024/01/21 05:13:26;;;;;;;;;;;;;;;25.26;15.91;99605.34;5112385;28;19932;-87
2024/01/21 05:15:52;;;;;;;;;;;;;;;25.30;15.59;99608.94;5111124;28;19959;-88
2024/01/21 05:18:20;;;;;;;;;;;;;;;25.35;15.92;99614.16;5085055;28;19954;-87
2024/01/21 05:20:46;;;;;;;;;;;;;;;25.35;15.50;99614.16;5112480;28;20307;-87
2024/01/21 05:23:12;;;;;;;;;;;;;;;25.21;15.63;99617.00;5111499;28;19919;-87
2024/01/21 05:25:38;;;;;;;;;;;;;;;24.66;16.02;99611.03;5113068;28;19927;-88
2024/01/21 05:28:04;;;;;;;;;;;;;;;24.05;16.56;99619.72;5108519;28;19943;-88
2024/01/21 05:30:30;;;;;;;;;;;;;;;23.83;16.77;99618.84;5102304;28;19955;-88
2024/01/21 05:32:56;;;;;;;;;;;;;;;24.00;16.88;99623.72;5112390;28;19920;-88
2024/01/21 05:35:22;;;;;;;;;;;;;;;24.43;16.68;99613.41;5112269;28;19923;-87
2024/01/21 05:37:49;;;;;;;;;;;;;;;24.85;16.21;99612.66;5109433;28;19919;-88
2024/01/21 05:40:15;;;;;;;;;;;;;;;25.02;16.14;99613.84;5111190;28;19919;-88
2024/01/21 05:42:41;;;;;;;;;;;;;;;25.01;15.94;99617.84;5114904;28;20303;-88
2024/01/21 05:45:07;;;;;;;;;;;;;;;24.76;16.20;99617.03;5124379;27;19926;-89
2024/01/21 05:47:34;;;;;;;;;;;;;;;24.82;16.29;99616.25;5107389;27;19920;-88
2024/01/21 05:50:00;;;;;;;;;;;;;;;25.01;15.98;99621.47;5116251;28;19926;-89
2024/01/21 05:52:26;;;;;;;;;;;;;;;25.23;16.07;99622.19;5113411;28;19920;-89
2024/01/21 05:54:52;;;;;;;;;;;;;;;24.93;15.97;99619.84;5109300;28;19924;-89
2024/01/21 05:57:18;;;;;;;;;;;;;;;24.69;16.05;99615.81;5092893;28;19920;-89
2024/01/21 05:59:44;;;;;;;;;;;;;;;24.56;16.17;99625.84;5107624;27;19930;-89
2024/01/21 06:02:10;;;;;;;;;;;;;;;24.17;16.79;99625.00;5113506;28;19920;-89
2024/01/21 06:04:37;;;;;;;;;;;;;;;24.46;16.61;99611.78;5116004;27;19981;-89
2024/01/21 06:07:03;;;;;;;;;;;;;;;24.89;16.36;99621.06;5110326;28;19920;-90
2024/01/21 06:09:29;;;;;;;;;;;;;;;24.99;16.34;99623.88;5114011;28;19920;-89
2024/01/21 06:11:55;;;;;;;;;;;;;;;25.07;15.95;99607.78;5091684;28;20302;-89
2024/01/21 06:14:21;;;;;;;;;;;;;;;25.21;15.77;99622.63;5114425;28;19920;-89
2024/01/21 06:16:47;;;;;;;;;;;;;;;25.19;16.05;99622.22;5111526;28;19920;-89
2024/01/21 06:19:13;;;;;;;;;;;;;;;25.23;15.74;99617.38;5109653;28;19919;-89
2024/01/21 06:21:46;;;;;;;;;;;;;;;25.41;15.98;99612.50;5117103;27;19943;-89
2024/01/21 06:24:12;;;;;;;;;;;;;;;25.52;16.00;99612.53;5105508;28;20339;-89
2024/01/21 06:26:40;;;;;;;;;;;;;;;25.42;15.90;99611.31;5111989;28;19920;-89
2024/01/21 06:29:07;;;;;;;;;;;;;;;25.50;16.20;99608.50;5115573;28;19924;-89
2024/01/21 06:31:33;;;;;;;;;;;;;;;25.57;15.96;99609.28;5114835;28;19920;-89
2024/01/21 06:33:59;;;;;;;;;;;;;;;25.62;15.95;99610.88;5106033;27;19928;-89
2024/01/21 06:36:25;;;;;;;;;;;;;;;25.58;16.09;99610.88;5112841;27;19966;-88
2024/01/21 06:38:51;;;;;;;;;;;;;;;25.62;15.83;99611.69;5112389;27;19974;-88
2024/01/21 06:41:17;;;;;;;;;;;;;;;25.55;15.89;99614.53;5113567;28;19920;-86
2024/01/21 06:43:44;;;;;;;;;;;;;;;25.52;15.82;99611.72;5092589;28;20341;-87
2024/01/21 06:46:10;;;;;;;;;;;;;;;25.67;15.65;99607.66;5110960;28;19923;-87
2024/01/21 06:48:36;;;;;;;;;;;;;;;25.18;16.03;99609.38;5113945;28;19921;-87
2024/01/21 06:51:09;;;;;;;;;;;;;;;24.88;16.98;99605.44;5103363;28;19995;-87
2024/01/21 06:53:35;;;;;;;;;;;;;;;25.08;16.31;99603.78;5110841;27;19930;-87
2024/01/21 06:56:07;;;;;;;;;;;;;;;25.37;15.85;99605.28;5112041;27;19920;-87
2024/01/21 06:58:33;;;;;;;;;;;;;;;25.16;16.09;99606.16;5109013;28;20414;-87
2024/01/21 07:00:59;;;;;;;;;;;;;;;24.96;16.30;99602.19;5113267;28;20010;-87
2024/01/21 07:03:27;;;;;;;;;;;;;;;24.87;16.76;99609.44;5107569;28;19920;-87
2024/01/21 07:05:53;;;;;;;;;;;;;;;25.15;16.27;99615.00;5109915;28;20403;-86
2024/01/21 07:08:19;;;;;;;;;;;;;;;25.47;16.14;99612.13;5110636;27;19926;-87
2024/01/21 07:10:45;;;;;;;;;;;;;;;25.60;15.89;99613.31;5107394;27;19920;-87
2024/01/21 07:13:11;;;;;;;;;;;;;;;25.72;15.88;99616.44;5108273;27;19920;-87
2024/01/21 07:15:37;;;;;;;;;;;;;;;25.84;16.05;99618.00;5114092;28;19923;-86
2024/01/21 07:18:03;;;;;;;;;;;;;;;25.90;15.74;99619.19;5110963;28;20379;-87
2024/01/21 07:20:29;;;;;;;;;;;;;;;25.87;15.64;99620.00;5113536;28;19921;-87
2024/01/21 07:22:56;;;;;;;;;;;;;;;25.80;15.80;99620.03;5109532;28;19920;-88
2024/01/21 07:25:22;;;;;;;;;;;;;;;25.47;16.04;99621.38;5109988;28;20395;-88
2024/01/21 07:27:48;;;;;;;;;;;;;;;25.02;16.51;99623.03;5113215;27;20010;-87
2024/01/21 07:30:14;;;;;;;;;;;;;;;24.92;16.77;99623.06;5113350;28;19963;-88
2024/01/21 07:32:40;;;;;;;;;;;;;;;24.89;16.41;99627.50;5110960;28;19965;-88
2024/01/21 07:35:08;;;;;;;;;;;;;;;25.25;16.60;99626.22;5106577;27;20329;-87
2024/01/21 07:37:36;;;;;;;;;;;;;;;25.55;16.18;99624.97;5091767;28;19943;-88
2024/01/21 07:40:03;;;;;;;;;;;;;;;25.67;16.31;99618.91;5109103;27;19958;-88
2024/01/21 07:42:30;;;;;;;;;;;;;;;25.88;15.64;99625.22;5109343;27;19961;-86
2024/01/21 07:44:56;;;;;;;;;;;;;;;25.81;16.05;99624.47;5112182;27;19927;-88
2024/01/21 07:47:22;;;;;;;;;;;;;;;25.64;16.36;99617.72;5109983;27;20454;-88
2024/01/21 07:49:48;;;;;;;;;;;;;;;25.85;16.22;99625.25;5102516;27;19919;-87
2024/01/21 07:52:16;;;;;;;;;;;;;;;25.86;15.97;99621.22;5111366;27;20321;-89
2024/01/21 07:54:43;;;;;;;;;;;;;;;25.19;16.42;99616.59;5111169;27;20006;-87
2024/01/21 07:57:09;;;;;;;;;;;;;;;24.92;16.64;99614.66;5109793;28;19920;-88
2024/01/21 07:59:35;;;;;;;;;;;;;;;25.15;16.35;99617.81;5086739;28;19946;-88
2024/01/21 08:02:01;;;;;;;;;;;;;;;25.02;16.34;99616.66;5099496;27;20010;-88
2024/01/21 08:04:27;;;;;;;;;;;;;;;24.60;17.01;99618.22;5108231;27;20465;-88
2024/01/21 08:06:53;;;;;;;;;;;;;;;24.59;17.08;99621.44;5103877;28;19920;-87
2024/01/21 08:09:20;;;;;;;;;;;;;;;24.21;17.08;99634.22;5108816;28;19928;-88
2024/01/21 08:11:46;;;;;;;;;;;;;;;24.03;17.37;99633.34;5109036;28;19920;-89
2024/01/21 08:14:13;;;;;;;;;;;;;;;24.36;17.21;99633.06;5111995;28;20357;-89
2024/01/21 08:16:39;;;;;;;;;;;;;;;24.96;16.56;99635.09;5109579;28;19919;-87
2024/01/21 08:19:05;;;;;;;;;;;;;;;24.82;16.79;99623.88;5107474;27;19920;-88
2024/01/21 08:21:31;;;;;;;;;;;;;;;24.50;16.75;99638.69;5109793;28;20018;-86
2024/01/21 08:23:58;;;;;;;;;;;;;;;24.77;16.84;99627.09;5109898;28;19919;-89
2024/01/21 08:26:24;;;;;;;;;;;;;;;25.39;16.30;99628.22;5112045;28;19927;-88
2024/01/21 08:28:50;;;;;;;;;;;;;;;25.18;16.27;99631.06;5102997;28;19923;-89
2024/01/21 08:31:16;;;;;;;;;;;;;;;24.29;17.17;99630.25;5110119;28;19920;-89
2024/01/21 08:33:42;;;;;;;;;;;;;;;24.49;17.12;99633.47;5104679;28;19931;-89
2024/01/21 08:36:08;;;;;;;;;;;;;;;25.11;16.81;99642.31;5113225;28;19972;-89
2024/01/21 08:38:35;;;;;;;;;;;;;;;25.32;16.45;99637.44;5106730;28;20398;-89
2024/01/21 08:41:02;;;;;;;;;;;;;;;24.99;16.64;99640.75;5109519;28;19927;-88
2024/01/21 08:43:28;;;;;;;;;;;;;;;24.91;17.27;99641.13;5109566;28;19942;-88
2024/01/21 08:45:54;;;;;;;;;;;;;;;25.37;16.96;99639.03;5112995;28;19923;-90
2024/01/21 08:48:20;;;;;;;;;;;;;;;25.57;16.12;99642.25;5110507;28;19943;-90
2024/01/21 08:50:46;;;;;;;;;;;;;;;24.25;17.11;99648.28;5112436;28;19924;-89
2024/01/21 08:53:13;;;;;;;;;;;;;;;22.88;18.50;99637.91;5111102;28;19923;-87
2024/01/21 08:55:39;;;;;;;;;;;;;;;23.80;17.73;99647.72;5110875;28;19919;-90
2024/01/21 08:58:06;;;;;;;;;;;;;;;24.91;17.71;99650.38;5107517;28;19926;-89
2024/01/21 09:00:32;;;;;;;;;;;;;;;25.28;16.76;99656.34;5114845;28;20035;-85
2024/01/21 09:02:58;;;;;;;;;;;;;;;24.37;17.40;99653.50;5094970;28;19933;-87
2024/01/21 09:05:24;;;;;;;;;;;;;;;24.49;17.23;99659.53;5106309;28;19932;-87
2024/01/21 09:07:50;;;;;;;;;;;;;;;25.39;17.19;99668.38;5110810;28;20064;-89
2024/01/21 09:10:17;;;;;;;;;;;;;;;26.20;16.11;99664.50;5092929;28;19920;-88
2024/01/21 09:12:43;;;;;;;;;;;;;;;26.07;16.30;99663.31;5111813;28;20472;-88
2024/01/21 09:15:09;;;;;;;;;;;;;;;24.99;17.17;99666.03;5110562;28;19920;-89
2024/01/21 09:17:35;;;;;;;;;;;;;;;24.87;17.80;99669.25;5115207;28;19973;-88
2024/01/21 09:20:01;;;;;;;;;;;;;;;25.54;16.69;99662.72;5116403;27;20010;-90
2024/01/21 09:22:27;;;;;;;;;;;;;;;26.07;16.09;99663.31;5109280;27;20446;-88
2024/01/21 09:24:53;;;;;;;;;;;;;;;26.38;16.14;99664.41;5111468;27;19966;-88
2024/01/21 09:27:19;;;;;;;;;;;;;;;26.72;15.88;99656.94;5111031;27;19954;-89
2024/01/21 09:29:45;;;;;;;;;;;;;;;26.69;15.93;99650.09;5108473;28;19939;-91
2024/01/21 09:32:11;;;;;;;;;;;;;;;26.79;15.36;99659.72;5119923;27;19928;-91
2024/01/21 09:34:41;;;;;;;;;;;;;;;26.53;15.74;99663.09;5112053;27;19924;-90
2024/01/21 09:37:07;;;;;;;;;;;;;;;26.78;15.36;99662.94;5111481;28;19920;-91
2024/01/21 09:39:33;;;;;;;;;;;;;;;26.99;15.37;99654.31;5114155;27;19927;-91
2024/01/21 09:41:59;;;;;;;;;;;;;;;27.11;15.36;99650.97;5109989;27;19923;-91
2024/01/21 09:44:26;;;;;;;;;;;;;;;27.19;15.90;99642.03;5111097;27;19924;-91
2024/01/21 09:46:56;;;;;;;;;;;;;;;27.33;14.80;99643.88;5109891;27;22305;-89
2024/01/21 09:49:22;;;;;;;;;;;;;;;26.58;15.77;99646.53;5111753;27;19959;-89
2024/01/21 09:51:49;;;;;;;;;;;;;;;26.29;16.15;99642.34;5107915;27;19930;-91
2024/01/21 09:54:15;;;;;;;;;;;;;;;26.38;15.58;99642.69;5102810;27;19923;-92
2024/01/21 09:56:41;;;;;;;;;;;;;;;26.39;15.85;99649.91;5106391;27;19982;-92
2024/01/21 09:59:08;;;;;;;;;;;;;;;26.83;15.42;99640.75;5119134;27;19924;-91
2024/01/21 10:01:36;;;;;;;;;;;;;;;26.76;15.49;99651.28;5095846;28;19920;-90
2024/01/21 10:04:02;;;;;;;;;;;;;;;26.86;15.76;99641.94;5116191;28;19996;-93
2024/01/21 10:06:28;;;;;;;;;;;;;;;26.81;15.32;99640.38;5117549;27;19928;-92
2024/01/21 10:09:10;;;;;;;;;;;;;;;25.99;15.92;99637.25;5098311;28;19926;-90
2024/01/21 10:11:36;;;;;;;;;;;;;;;26.37;15.84;99641.06;5114076;28;19959;-92
2024/01/21 10:14:02;;;;;;;;;;;;;;;26.36;16.04;99633.03;5114539;27;19920;-92
2024/01/21 10:16:28;;;;;;;;;;;;;;;26.03;15.94;99628.78;5107973;27;19927;-92
2024/01/21 10:18:54;;;;;;;;;;;;;;;25.37;16.64;99622.16;5108955;28;19931;-92
2024/01/21 10:21:20;;;;;;;;;;;;;;;25.96;16.32;99634.44;5112323;27;19973;-92
2024/01/21 10:23:47;;;;;;;;;;;;;;;25.77;16.34;99627.28;5108029;27;19994;-92
2024/01/21 10:26:13;;;;;;;;;;;;;;;25.55;16.61;99634.22;5105669;27;19928;-91
2024/01/21 10:28:39;;;;;;;;;;;;;;;25.22;16.71;99631.88;5111885;27;20349;-90
2024/01/21 10:31:08;;;;;;;;;;;;;;;25.19;16.80;99627.03;5094502;28;20116;-87
2024/01/21 10:33:34;;;;;;;;;;;;;;;25.81;16.36;99632.91;5126260;27;20387;-90
2024/01/21 10:36:02;;;;;;;;;;;;;;;26.14;16.05;99623.91;5120574;27;19920;-89
2024/01/21 10:38:29;;;;;;;;;;;;;;;24.40;17.25;99622.63;5115669;28;20324;-90
2024/01/21 10:40:56;;;;;;;;;;;;;;;23.94;17.98;99630.13;5115218;27;19920;-90
2024/01/21 10:43:24;;;;;;;;;;;;;;;23.81;17.67;99618.44;5110901;28;19955;-91
2024/01/21 10:45:51;;;;;;;;;;;;;;;25.02;16.76;99627.88;5114684;27;19970;-89
2024/01/21 10:48:19;;;;;;;;;;;;;;;25.75;16.51;99631.72;5106293;27;19929;-90
2024/01/21 10:50:46;;;;;;;;;;;;;;;23.52;18.11;99635.56;5111501;28;19916;-90
2024/01/21 10:53:12;;;;;;;;;;;;;;;23.84;18.25;99636.50;5107218;27;19930;-90
2024/01/21 10:55:40;;;;;;;;;;;;;;;23.93;17.98;99625.69;5111628;27;19927;-90
2024/01/21 10:58:08;;;;;;;;;;;;;;;23.91;17.92;99640.13;5105206;27;19920;-90
2024/01/21 11:00:37;;;;;;;;;;;;;;;24.89;17.12;99627.50;5103920;27;19931;-90
2024/01/21 11:03:25;;;;;;;;;;;;;;;25.45;17.13;99623.78;5109553;28;19945;-91
2024/01/21 11:05:59;;;;;;;;;;;;;;;26.12;16.33;99617.88;5116146;28;19959;-89
2024/01/21 11:08:26;;;;;;;;;;;;;;;26.30;16.21;99610.13;5110472;27;19971;-90
2024/01/21 11:11:08;;;;;;;;;;;;;;;26.63;16.36;99614.31;5112762;27;20014;-89
2024/01/21 11:13:43;;;;;;;;;;;;;;;26.93;15.88;99606.06;5111166;27;19970;-89
2024/01/21 11:16:33;;;;;;;;;;;;;;;27.37;15.67;99597.56;5092461;28;20002;-90
2024/01/21 11:19:02;;;;;;;;;;;;;;;27.36;14.98;99592.28;5108228;28;19928;-92
2024/01/21 11:21:29;;;;;;;;;;;;;;;27.02;15.32;99599.91;5114241;27;19955;-91
2024/01/21 11:24:05;;;;;;;;;;;;;;;26.85;16.41;99596.03;5114482;27;19970;-93
2024/01/21 11:26:34;;;;;;;;;;;;;;;26.98;15.84;99587.88;5111678;27;19927;-91
2024/01/21 11:29:01;;;;;;;;;;;;;;;27.37;15.21;99580.63;5087934;28;19974;-90
2024/01/21 11:31:31;;;;;;;;;;;;;;;27.39;14.88;99568.91;5107809;28;19971;-89
2024/01/21 11:34:04;;;;;;;;;;;;;;;26.36;15.54;99557.00;5111003;28;19919;-92
2024/01/21 11:36:32;;;;;;;;;;;;;;;25.90;16.38;99560.91;5110849;28;19927;-92
2024/01/21 11:38:59;;;;;;;;;;;;;;;26.34;15.97;99553.78;5095261;28;19927;-92
2024/01/21 11:41:33;;;;;;;;;;;;;;;26.31;16.07;99549.78;5113294;27;19919;-91
2024/01/21 11:44:07;;;;;;;;;;;;;;;26.34;15.94;99546.16;5108155;27;19951;-90
2024/01/21 11:46:33;;;;;;;;;;;;;;;25.79;16.54;99546.09;5108258;27;20306;-91
2024/01/21 11:49:01;;;;;;;;;;;;;;;25.30;16.47;99544.28;5105588;27;20391;-90
2024/01/21 11:51:27;;;;;;;;;;;;;;;25.98;16.86;99544.75;5107945;28;20346;-90
2024/01/21 11:53:53;;;;;;;;;;;;;;;26.01;16.49;99556.00;5092431;28;19916;-90
2024/01/21 11:56:19;;;;;;;;;;;;;;;25.90;16.07;99551.66;5110299;27;19927;-89
2024/01/21 11:58:45;;;;;;;;;;;;;;;26.21;16.34;99549.88;5106399;27;19924;-91
2024/01/21 12:01:11;;;;;;;;;;;;;;;26.28;15.95;99549.84;5104924;27;20007;-89
2024/01/21 12:03:37;;;;;;;;;;;;;;;24.08;17.64;99548.00;5106738;27;20317;-88
2024/01/21 12:06:04;;;;;;;;;;;;;;;24.52;17.54;99554.84;5115070;27;19931;-90
2024/01/21 12:08:30;;;;;;;;;;;;;;;23.09;18.52;99554.03;5116852;27;19926;-87
2024/01/21 12:10:56;;;;;;;;;;;;;;;24.33;17.92;99549.63;5107636;28;19969;-90
2024/01/21 12:13:22;;;;;;;;;;;;;;;24.63;17.26;99533.19;5118786;28;19928;-86
2024/01/21 12:15:49;;;;;;;;;;;;;;;25.42;17.09;99538.19;5107091;28;20595;-86
2024/01/21 12:18:15;;;;;;;;;;;;;;;25.92;16.88;99532.34;5104596;28;20380;-86
2024/01/21 12:20:41;;;;;;;;;;;;;;;26.14;16.55;99516.94;5105875;28;19923;-85
2024/01/21 12:23:18;;;;;;;;;;;;;;;26.32;16.54;99519.63;5105051;28;19920;-86
2024/01/21 12:25:44;;;;;;;;;;;;;;;26.38;16.21;99523.56;5113177;27;20371;-87
2024/01/21 12:28:11;;;;;;;;;;;;;;;26.49;15.96;99518.69;5105416;28;19942;-87
2024/01/21 12:30:37;;;;;;;;;;;;;;;26.54;16.34;99515.38;5107857;27;20376;-87
2024/01/21 12:33:03;;;;;;;;;;;;;;;26.57;16.12;99515.38;5105050;28;20372;-86
2024/01/21 12:35:29;;;;;;;;;;;;;;;26.26;16.25;99505.16;5104153;28;19916;-87
2024/01/21 12:37:56;;;;;;;;;;;;;;;25.83;16.93;99501.06;5105308;28;19920;-87
2024/01/21 12:40:22;;;;;;;;;;;;;;;25.74;16.95;99501.50;5106741;28;19921;-91
2024/01/21 12:42:48;;;;;;;;;;;;;;;25.62;16.68;99507.63;5109066;28;20454;-88
2024/01/21 12:45:14;;;;;;;;;;;;;;;25.55;16.70;99501.22;5077523;28;20010;-87